SKPC/PCR METAR and TAF weather

Enter ICAO airport designator
Station Type Date Time Source
SKPC METAR 2019/04/26 03:00 UTC NOAA

SKPC 260300Z 00000KT 9999 BKN070 25/24 A2993


Station Type Date Time Source
SKPC Decoded METAR 2019/04/26 03:00 UTC NOAA

Puerto Carreno / A. Guauquea, Colombia (SKPC) 06-10N 067-30W
Apr 25, 2019 - 11:00 PM EDT / 2019.04.26 0300 UTC
Wind: Calm:0
Visibility: greater than 7 mile(s):0
Sky conditions: mostly cloudy
Temperature: 77 F (25 C)
Dew Point: 75 F (24 C)
Relative Humidity: 94%
Pressure (altimeter): 29.93 in. Hg (1013 hPa)
ob: SKPC 260300Z 00000KT 9999 BKN070 25/24 A2993
cycle: 3

Station Type Date Time Source
SKPC TAF UTC NOAA

Error!

Example: see airport list